Latest Weather Observations for Roma

IDQ60801

Issued at 4:32 pm EST Saturday 13 February 2016 (issued every 30 minutes, with the page automatically refreshed every 10 minutes)

About weather observations | Map of weather stations | Latest weather observations for QLD | Other Formats
Station Details ID: 043091 Name: ROMA AIRPORT Lat: -26.55 Lon: 148.77 Height: 307.38 m
Data from the previous 72 hours. | See also: Recent months at Roma
Date/Time
EST
Temp
°C
App
Temp
°C
Dew
Point
Rel
Hum
%
Delta-T
°C
Wind Press
QNH
hPa
Press
MSL
hPa
Rain
since 9 am
mm
Dir
 
Spd
km/h
Gust
km/h
Spd
kts
Gust
kts
13/04:30pm 31.2 29.1 11.1 29 11.8 SSE 13 22 7 12 1009.0 1007.1 0.0
13/04:00pm 31.5 29.5 12.8 32 11.3 S 15 22 8 12 1009.1 1007.2 0.0
13/03:30pm 31.1 28.3 11.5 30 11.6 SSE 17 24 9 13 1009.4 1007.5 0.0
13/03:00pm 31.1 29.2 12.9 32 11.0 S 15 24 8 13 1009.7 1007.8 0.0
13/02:30pm 31.1 28.4 12.9 32 11.0 SSW 19 26 10 14 1010.0 1008.1 0.0
13/02:00pm 30.8 28.9 13.1 34 10.7 SSW 15 24 8 13 1010.5 1008.5 0.0
13/01:30pm 30.6 28.3 13.0 34 10.6 S 17 26 9 14 1011.0 1009.0 0.0
13/01:00pm 29.9 27.8 12.3 33 10.5 SSE 15 24 8 13 1011.5 1009.6 0.0
13/12:30pm 29.9 29.1 15.2 41 9.1 SSW 13 20 7 11 1011.9 1010.0 0.0
13/12:00pm 29.6 30.0 16.4 45 8.3 ESE 9 17 5 9 1012.2 1010.3 0.0
13/11:30am 29.1 29.6 14.9 42 8.7 SSE 6 15 3 8 1012.7 1010.8 0.0
13/11:00am 27.9 27.5 14.2 43 8.3 S 9 19 5 10 1013.1 1011.2 0.0
13/10:30am 26.9 26.3 13.6 44 8.0 E 9 17 5 9 1013.2 1011.3 0.0
13/10:00am 26.3 26.0 14.4 48 7.2 ESE 9 15 5 8 1013.3 1011.4 0.0
13/09:30am 25.7 25.0 15.4 53 6.3 E 13 20 7 11 1013.4 1011.5 0.0
13/09:00am 25.6 25.1 15.9 55 6.0 E 13 19 7 10 1013.8 1011.8 0.0
13/08:30am 24.2 23.5 15.4 58 5.4 ENE 13 17 7 9 1013.8 1011.8 0.0
13/08:00am 23.8 23.8 16.3 63 4.6 E 11 19 6 10 1014.0 1012.0 0.0
13/07:30am 22.3 22.6 16.1 68 3.8 ESE 9 11 5 6 1013.7 1011.7 0.0
13/07:00am 20.6 22.4 15.6 73 3.0 CALM 0 0 0 0 1013.2 1011.3 0.0
13/06:30am 18.0 19.7 15.3 84 1.6 CALM 0 0 0 0 1013.0 1011.1 0.0
13/06:00am 16.5 17.0 14.0 85 1.4 ESE 4 6 2 3 1012.6 1010.7 0.0
13/05:30am 17.3 18.9 14.9 86 1.4 CALM 0 0 0 0 1012.2 1010.3 0.0
13/05:00am 18.4 20.1 15.1 81 2.0 CALM 0 0 0 0 1012.0 1010.1 0.0
13/04:30am 18.4 18.4 15.1 81 2.0 E 9 9 5 5 1011.8 1009.9 0.0
13/04:00am 18.5 18.3 14.8 79 2.2 E 9 11 5 6 1011.6 1009.7 0.0
13/03:30am 19.8 19.7 15.0 74 2.9 ENE 9 11 5 6 1011.6 1009.7 0.0
13/03:00am 20.5 21.0 15.5 73 3.0 NNE 7 11 4 6 1011.6 1009.7 0.0
13/02:30am 21.3 20.2 15.4 69 3.6 ENE 15 20 8 11 1011.4 1009.5 0.0
13/02:00am 21.5 20.3 16.0 71 3.4 NE 17 24 9 13 1011.5 1009.6 0.0
13/01:30am 20.1 19.2 14.9 72 3.1 NNE 13 17 7 9 1011.4 1009.5 0.0
13/01:00am 19.1 18.3 15.2 78 2.3 NNE 13 15 7 8 1011.5 1009.6 0.0
13/12:30am 20.2 22.0 15.6 75 2.8 CALM 0 2 0 1 1011.7 1009.8 0.0
13/12:00am 20.6 20.8 15.8 74 2.9 NNE 9 9 5 5 1011.8 1009.9 0.0
 
Date/Time
EST
Temp
°C
App
Temp
°C
Dew
Point
Rel
Hum
%
Delta-T
°C
Wind Press
QNH
hPa
Press
MSL
hPa
Rain
since 9 am
mm
Dir
 
Spd
km/h
Gust
km/h
Spd
kts
Gust
kts
12/11:30pm 19.1 20.2 16.7 86 1.5 NNE 6 6 3 3 1012.1 1010.2 0.0
12/11:00pm 19.5 20.4 16.7 84 1.7 NNE 7 9 4 5 1012.1 1010.2 0.0
12/10:30pm 20.0 20.7 16.0 78 2.4 N 7 7 4 4 1012.1 1010.2 0.0
12/10:00pm 20.8 22.2 16.4 76 2.7 NW 4 6 2 3 1012.2 1010.3 0.0
12/09:30pm 21.3 22.2 16.0 72 3.2 SSW 6 7 3 4 1012.1 1010.2 0.0
12/09:00pm 22.1 24.5 17.0 73 3.2 CALM 0 0 0 0 1012.1 1010.2 0.0
12/08:30pm 22.9 24.9 16.0 65 4.2 CALM 0 0 0 0 1011.8 1009.9 0.0
12/08:00pm 24.0 25.4 16.3 62 4.8 N 4 6 2 3 1011.6 1009.7 0.0
12/07:30pm 24.6 25.7 15.5 57 5.6 ENE 4 6 2 3 1011.5 1009.6 0.0
12/07:00pm 26.7 26.8 13.8 45 7.7 ESE 6 7 3 4 1011.4 1009.5 0.0
12/06:30pm 27.8 26.1 12.6 39 9.0 SE 13 17 7 9 1011.2 1009.3 0.0
12/06:00pm 29.9 27.3 11.9 33 10.6 SE 17 24 9 13 1011.2 1009.3 0.0
12/05:30pm 30.6 27.9 13.0 34 10.6 SE 19 26 10 14 1011.0 1009.0 0.0
12/05:00pm 30.8 27.6 13.1 34 10.7 SE 22 32 12 17 1010.9 1008.9 0.0
12/04:30pm 31.1 29.4 14.7 37 10.1 SSE 17 26 9 14 1011.0 1009.0 0.0
12/04:00pm 31.1 30.0 16.3 41 9.4 SSE 17 24 9 13 1011.0 1009.0 0.0
12/03:30pm 30.7 29.3 15.5 39 9.5 SE 17 24 9 13 1011.0 1009.0 0.0
12/03:00pm 31.3 30.9 16.1 40 9.6 S 13 24 7 13 1011.3 1009.4 0.0
12/02:30pm 31.1 30.7 15.1 38 10.0 S 11 20 6 11 1011.6 1009.7 0.0
12/02:00pm 30.7 29.6 15.2 39 9.7 SSE 15 24 8 13 1011.8 1009.9 0.0
12/01:30pm 30.1 29.3 16.1 42 8.8 SSE 15 24 8 13 1012.1 1010.2 0.0
12/01:00pm 29.5 29.4 14.9 41 9.0 ESE 9 13 5 7 1012.4 1010.5 0.0
12/12:30pm 29.7 29.9 15.8 43 8.7 NE 9 15 5 8 1012.9 1011.0 0.0
12/12:00pm 28.8 29.0 15.7 45 8.2 ENE 9 15 5 8 1013.3 1011.4 0.0
12/11:30am 28.6 29.2 15.8 45 8.0 E 7 13 4 7 1013.7 1011.7 0.0
12/11:00am 27.7 28.0 16.0 49 7.3 E 9 17 5 9 1013.9 1011.9 0.0
12/10:30am 27.2 27.2 15.2 47 7.4 ENE 9 17 5 9 1014.3 1012.4 0.0
12/10:00am 27.2 27.1 15.9 50 7.0 ENE 11 20 6 11 1014.6 1012.7 0.0
12/09:30am 26.4 25.7 15.4 50 6.8 NE 13 20 7 11 1014.8 1012.9 0.0
12/09:00am 26.1 24.5 16.1 54 6.2 NE 19 26 10 14 1014.7 1012.8 0.0
12/08:30am 24.9 23.1 15.5 56 5.8 NE 19 24 10 13 1014.8 1012.9 0.0
12/08:00am 24.4 22.6 15.6 58 5.4 NE 19 28 10 15 1014.9 1013.0 0.0
12/07:30am 23.3 22.0 15.9 63 4.5 NNE 17 22 9 12 1014.7 1012.8 0.0
12/07:00am 22.0 21.8 15.6 67 3.9 NE 11 15 6 8 1014.4 1012.5 0.0
12/06:30am 20.7 20.3 16.1 75 2.8 NE 13 17 7 9 1014.0 1012.0 0.0
12/06:00am 19.6 18.9 16.3 81 2.0 ENE 15 19 8 10 1013.8 1011.8 0.0
12/05:30am 19.6 19.1 15.9 79 2.2 ENE 13 17 7 9 1013.5 1011.6 0.0
12/05:00am 19.9 18.9 15.7 77 2.5 ENE 15 19 8 10 1013.2 1011.3 0.0
12/04:30am 19.8 19.1 15.4 76 2.6 NE 13 17 7 9 1012.7 1010.8 0.0
12/04:00am 20.0 19.5 16.0 78 2.4 NE 13 15 7 8 1012.3 1010.4 0.0
12/03:30am 20.6 20.4 16.8 79 2.3 NNE 13 17 7 9 1011.9 1010.0 0.0
12/03:00am 20.9 19.7 16.1 74 2.9 NNE 17 20 9 11 1012.0 1010.1 0.0
12/02:30am 21.3 20.4 16.9 76 2.7 NNE 17 20 9 11 1012.0 1010.1 0.0
12/02:00am 21.2 20.8 17.2 78 2.5 NE 15 19 8 10 1012.2 1010.3 0.0
12/01:30am 21.7 20.3 16.9 74 3.0 NE 20 26 11 14 1012.4 1010.5 0.0
12/01:00am 21.4 20.1 17.2 77 2.6 NE 20 33 11 18 1012.7 1010.8 0.0
12/12:30am 20.2 22.9 17.8 86 1.5 CALM 0 6 0 3 1012.3 1010.4 0.0
12/12:00am 20.4 22.0 17.8 85 1.6 N 6 6 3 3 1012.3 1010.4 0.0
 
Date/Time
EST
Temp
°C
App
Temp
°C
Dew
Point
Rel
Hum
%
Delta-T
°C
Wind Press
QNH
hPa
Press
MSL
hPa
Rain
since 9 am
mm
Dir
 
Spd
km/h
Gust
km/h
Spd
kts
Gust
kts
11/11:30pm 20.3 21.7 17.9 86 1.5 N 7 9 4 5 1012.3 1010.4 0.0
11/11:00pm 20.8 23.8 18.4 86 1.5 CALM 0 9 0 5 1012.5 1010.6 0.0
11/10:30pm 21.2 23.7 18.2 83 1.9 NNE 2 6 1 3 1012.4 1010.5 0.0
11/10:00pm 21.8 23.6 18.4 81 2.2 NNE 6 7 3 4 1012.4 1010.5 0.0
11/09:30pm 21.7 23.2 17.7 78 2.5 WNW 6 9 3 5 1012.3 1010.4 0.0
11/09:00pm 22.0 24.5 17.2 74 3.0 CALM 0 0 0 0 1012.0 1010.1 0.0
11/08:30pm 22.7 25.2 17.2 71 3.4 CALM 0 0 0 0 1011.7 1009.8 0.0
11/08:00pm 23.0 25.3 17.7 72 3.3 NNW 2 7 1 4 1011.4 1009.5 0.0
11/07:30pm 25.7 27.4 15.1 52 6.5 CALM 0 2 0 1 1011.4 1009.5 0.0
11/07:00pm 26.9 26.7 14.6 46 7.5 SSE 9 11 5 6 1011.1 1009.2 0.0
11/06:30pm 28.5 28.2 14.3 41 8.6 SE 9 13 5 7 1010.9 1008.9 0.0
11/06:00pm 29.6 28.4 12.9 35 10.0 SE 11 15 6 8 1010.8 1008.8 0.0
11/05:30pm 30.2 29.0 13.9 37 9.9 SE 13 19 7 10 1010.6 1008.6 0.0
11/05:00pm 30.4 28.2 13.2 35 10.4 SSE 17 24 9 13 1010.4 1008.4 0.0
11/04:30pm 30.8 29.0 14.4 36 10.1 SE 17 22 9 12 1010.1 1008.2 0.0
11/04:00pm 30.3 29.1 14.0 37 10.0 SE 13 20 7 11 1010.3 1008.3 0.0
11/03:30pm 30.2 28.6 13.9 37 9.9 SSE 15 22 8 12 1010.4 1008.4 0.0
11/03:00pm 30.9 30.0 13.7 35 10.5 SSE 11 24 6 13 1010.6 1008.6 0.0
11/02:30pm 29.9 28.8 14.4 38 9.5 SE 13 19 7 10 1011.2 1009.3 0.0
11/02:00pm 29.4 27.7 13.6 38 9.6 SSE 15 24 8 13 1011.6 1009.7 0.0
11/01:30pm 29.6 28.3 13.8 38 9.6 SE 13 20 7 11 1011.9 1010.0 0.0
11/01:00pm 29.7 28.5 15.0 40 9.1 SSE 15 22 8 12 1012.3 1010.4 0.0
11/12:30pm 29.3 30.2 16.5 46 8.1 NE 7 15 4 8 1012.6 1010.7 0.0
11/12:00pm 29.2 29.8 16.7 46 7.9 N 9 13 5 7 1012.9 1011.0 0.0
11/11:30am 28.8 28.6 16.7 48 7.7 NE 13 20 7 11 1013.4 1011.5 0.0
11/11:00am 28.4 29.9 18.8 56 6.3 NNE 9 19 5 10 1013.7 1011.7 0.0
11/10:30am 26.9 26.5 16.2 52 6.7 N 13 20 7 11 1013.9 1011.9 0.0
11/10:00am 26.5 26.3 16.7 55 6.1 NNE 13 20 7 11 1014.1 1012.2 0.0
11/09:30am 26.1 25.7 17.2 58 5.6 NNE 15 20 8 11 1014.2 1012.3 0.0
11/09:00am 25.0 24.2 17.0 61 5.0 N 17 24 9 13 1014.3 1012.4 0.0
11/08:30am 24.9 23.7 17.6 64 4.6 NNE 20 24 11 13 1014.3 1012.4 0.0
11/08:00am 23.8 22.6 17.1 66 4.2 NNE 19 24 10 13 1014.0 1012.0 0.0
11/07:30am 22.5 20.7 17.0 71 3.4 NNE 22 30 12 16 1013.8 1011.8 0.0
11/07:00am 21.7 21.0 17.3 76 2.7 NNE 17 24 9 13 1013.5 1011.6 0.0
11/06:30am 20.7 20.3 17.1 80 2.2 NNE 15 20 8 11 1013.1 1011.2 0.0
11/06:00am 20.0 19.1 16.8 82 2.0 NNE 17 22 9 12 1012.8 1010.9 0.0
11/05:30am 19.8 19.3 16.8 83 1.8 NNE 15 20 8 11 1012.6 1010.7 0.0
11/05:00am 19.7 19.6 16.9 84 1.7 NE 13 17 7 9 1012.3 1010.4 0.0
11/04:30am 20.5 20.2 17.3 82 2.0 NE 15 20 8 11 1012.2 1010.3 0.0
11/04:00am 20.7 19.6 17.3 81 2.1 ENE 19 24 10 13 1011.9 1010.0 0.0
11/03:30am 20.8 19.6 17.0 79 2.3 NE 19 24 10 13 1011.6 1009.7 0.0
11/03:00am 20.7 19.4 16.7 78 2.5 NE 19 24 10 13 1011.6 1009.7 0.0
11/02:30am 19.8 22.1 16.8 83 1.8 CALM 0 0 0 0 1011.2 1009.3 0.0
11/02:00am 19.5 21.6 16.2 81 2.0 CALM 0 0 0 0 1011.4 1009.5 0.0
11/01:30am 19.8 19.3 16.8 83 1.8 E 15 32 8 17 1011.9 1010.0 0.0
11/01:00am 18.4 19.5 15.5 83 1.7 W 4 6 2 3 1011.7 1009.8 0.0
11/12:30am 18.9 21.1 16.5 86 1.5 CALM 0 0 0 0 1012.0 1010.1 0.0
11/12:00am 19.4 22.0 17.4 88 1.2 CALM 0 0 0 0 1012.4 1010.5 0.0
 
Date/Time
EST
Temp
°C
App
Temp
°C
Dew
Point
Rel
Hum
%
Delta-T
°C
Wind Press
QNH
hPa
Press
MSL
hPa
Rain
since 9 am
mm
Dir
 
Spd
km/h
Gust
km/h
Spd
kts
Gust
kts
10/11:30pm 19.4 21.1 15.3 77 2.4 CALM 0 0 0 0 1012.6 1010.7 0.0
10/11:00pm 19.9 20.6 15.5 76 2.6 SW 6 9 3 5 1012.8 1010.9 0.0
10/10:30pm 20.2 22.4 16.6 80 2.2 CALM 0 0 0 0 1012.9 1011.0 0.0
10/10:00pm 20.7 23.2 17.3 81 2.1 CALM 0 4 0 2 1012.8 1010.9 0.0
10/09:30pm 21.6 24.3 17.8 79 2.4 CALM 0 4 0 2 1012.8 1010.9 0.0
10/09:00pm 22.6 24.8 16.6 69 3.7 CALM 0 0 0 0 1012.7 1010.8 0.0
10/08:30pm 22.0 23.7 16.1 69 3.6 SW 2 7 1 4 1012.6 1010.7 0.0
10/08:00pm 22.2 22.6 16.2 69 3.7 SW 9 11 5 6 1012.5 1010.6 0.0
10/07:30pm 23.4 23.4 15.2 60 5.0 SSW 9 11 5 6 1012.2 1010.3 0.0
10/07:00pm 25.2 24.0 14.0 49 6.7 S 13 15 7 8 1012.0 1010.1 0.0
10/06:30pm 27.3 24.9 12.5 40 8.7 S 17 20 9 11 1011.9 1010.0 0.0
10/06:00pm 28.4 26.8 12.7 38 9.3 SSE 13 17 7 9 1011.7 1009.8 0.0
10/05:30pm 29.1 25.8 11.6 33 10.2 SSE 20 28 11 15 1011.6 1009.7 0.0
10/05:00pm 29.6 27.3 11.6 33 10.6 SSE 15 32 8 17 1011.4 1009.5 0.0

Other Formats:

Comma delimited format used in spreadsheet applications
http://www.bom.gov.au/fwo/IDQ60801/IDQ60801.94515.axf

JavaScript Object Notation format (JSON) in row-major order
http://www.bom.gov.au/fwo/IDQ60801/IDQ60801.94515.json